Aérodrome :
LOGIN :

S'inscrire | Disclaimer

   EN    FR    IT 

 










Légende :    VFR   VFR Marginal   IFR   IFR Intensif   IFR Très Intensif
Visi : 
Plafond : 
>= 8 km
>= 3000ft
5 à 8 km
1000 à 3000 ft
1500m à 5 km
500 à 1000 ft
800 à 1500m
200 à 500 ft
< 800m
< 200 ft
Symboles :   Orages  Brouillard  Fortes neiges  Fortes précipitations  Vent > 20 kt
SIGMETs :   Divers  Orages  Givrage  Turbulence  Onde Orograph.  Cendres Volcan.







- Altitude de l'aérodrome : 333 ft


LIPL - Ghedi Brescia (Mil)

DERNIER METAR :
  • 151155Z 18002KT 6000 FEW025 BKN040 14/12 Q1026 RMK BKN VIS MIN 6000 WIND THR31 18002KT WIND THR13 18002KT WHT

METARs EXPIRÉS :
  • 151055Z 17003KT 5000 BR SCT022 SCT030 14/12 Q1026 RMK BKN VIS MIN 5000 WIND THR31 16003KT WIND THR13 16003KT WHT
  • 150955Z 13003KT 4000 BR SCT022 SCT030 13/11 Q1027 RMK BKN VIS MIN 4000 WIND THR31 11004KT WIND THR13 11003KT GRN

TAF TAF LIPL
Valide du 15 à 12h jusqu'au 15 à 21h UTC


151100Z 1512/1521 14003KT 6000 SCT015 SCT030
BECMG 1516/1518 3000 BR
Pas de NOTAMs connus pour ce terrain.



MET'MAP, la Météo Aéronautique d'un coup d'oeil ! - Copyright ORBIFLY Décembre 2007 - Disclaimer

ORBIFLY MET'MAP TEAM :

Programmation & Développement : Alexandra Zaïnal
Conception & Développement : Baudouin d'Aumeries
Co-Programmation & Développement : Marc-Olivier Méhu
Soutien technique & logistique : Manuel Goepfert

Contact : metmap@orbifly.com




SOURCES & CREDITS :

   NOAA